Station Historical Data
Daily Summary for May 1, 2012 Units:  Both    English   Metric
« Previous Day
Next Day »
Daily Weekly Monthly Yearly Custom
  High: Low: Average:
Temperature: 85.5 °F /  29.7 °C 61.5 °F /  16.4 °C 74.7 °F /  23.7 °C
Dew Point: 68.6 °F /  20.3 °C 59.1 °F /  15.1 °C 64 °F /  17.8 °C
Humidity: 92% 49% 71%
Wind Speed: 11.0mph /  17.7km/h - 3.4mph /  5.5km/h
Wind Gust: 15.0mph /  24.1km/h - -
Wind- - South
Pressure: 30.05 in /  1017.5 hPa 29.92 in /  1013.1 hPa -
Precipitation: 0.00 in /  0 mm    
Historical Graphs
 
 
Tabular Data for May 1, 2012
Time Temperature Dew Point Pressure Wind Wind Speed Wind Gust Humidity Rainfall Rate (Hourly) Conditions
00:00 70.7 °F /  21.5 °C 63.5 °F /  17.5 °C 29.99in /  1015.5hPa Calm   1.0mph /  1.6km/h 78% 0.00in /  0mm
00:01 70.6 °F /  21.4 °C 63.4 °F /  17.4 °C 29.99in /  1015.5hPa SE 1.0mph /  1.6km/h 1.0mph /  1.6km/h 78% 0.00in /  0mm
00:06 70.3 °F /  21.3 °C 63.5 °F /  17.5 °C 29.99in /  1015.5hPa SE 1.0mph /  1.6km/h 2.0mph /  3.2km/h 79% 0.00in /  0mm
00:11 70.3 °F /  21.3 °C 63.5 °F /  17.5 °C 29.99in /  1015.5hPa SE 1.0mph /  1.6km/h 2.0mph /  3.2km/h 79% 0.00in /  0mm
00:16 69.8 °F /  21 °C 63.0 °F /  17.2 °C 29.99in /  1015.5hPa SE 1.0mph /  1.6km/h 2.0mph /  3.2km/h 79% 0.00in /  0mm
00:21 69.5 °F /  20.8 °C 63.1 °F /  17.3 °C 29.98in /  1015.1hPa SE 1.0mph /  1.6km/h 1.0mph /  1.6km/h 80% 0.00in /  0mm
00:26 69.3 °F /  20.7 °C 62.9 °F /  17.2 °C 29.98in /  1015.1hPa SE 1.0mph /  1.6km/h 2.0mph /  3.2km/h 80% 0.00in /  0mm
00:31 69.1 °F /  20.6 °C 62.7 °F /  17.1 °C 29.98in /  1015.1hPa SE 1.0mph /  1.6km/h 2.0mph /  3.2km/h 80% 0.00in /  0mm
00:36 69.2 °F /  20.7 °C 62.8 °F /  17.1 °C 29.98in /  1015.1hPa SSE 2.0mph /  3.2km/h 2.0mph /  3.2km/h 80% 0.00in /  0mm
00:41 69.2 °F /  20.7 °C 62.8 °F /  17.1 °C 29.98in /  1015.1hPa SE 2.0mph /  3.2km/h 3.0mph /  4.8km/h 80% 0.00in /  0mm
00:46 69.2 °F /  20.7 °C 62.8 °F /  17.1 °C 29.97in /  1014.8hPa SSE 2.0mph /  3.2km/h 3.0mph /  4.8km/h 80% 0.00in /  0mm
00:51 69.7 °F /  20.9 °C 62.9 °F /  17.2 °C 29.97in /  1014.8hPa SE 3.0mph /  4.8km/h 4.0mph /  6.4km/h 79% 0.00in /  0mm
00:56 69.9 °F /  21.1 °C 62.7 °F /  17.1 °C 29.97in /  1014.8hPa ESE 3.0mph /  4.8km/h 3.0mph /  4.8km/h 78% 0.00in /  0mm
01:01 69.9 °F /  21.1 °C 62.7 °F /  17.1 °C 29.97in /  1014.8hPa SE 4.0mph /  6.4km/h 5.0mph /  8km/h 78% 0.00in /  0mm
01:06 69.9 °F /  21.1 °C 62.7 °F /  17.1 °C 29.96in /  1014.4hPa SE 3.0mph /  4.8km/h 4.0mph /  6.4km/h 78% 0.00in /  0mm
01:11 69.6 °F /  20.9 °C 62.4 °F /  16.9 °C 29.96in /  1014.4hPa SE 2.0mph /  3.2km/h 4.0mph /  6.4km/h 78% 0.00in /  0mm
01:16 69.4 °F /  20.8 °C 62.2 °F /  16.8 °C 29.97in /  1014.8hPa SE 2.0mph /  3.2km/h 3.0mph /  4.8km/h 78% 0.00in /  0mm
01:21 69.2 °F /  20.7 °C 62.1 °F /  16.7 °C 29.97in /  1014.8hPa SE 2.0mph /  3.2km/h 3.0mph /  4.8km/h 78% 0.00in /  0mm
01:26 69.0 °F /  20.6 °C 62.2 °F /  16.8 °C 29.97in /  1014.8hPa SE 2.0mph /  3.2km/h 3.0mph /  4.8km/h 79% 0.00in /  0mm
01:31 69.0 °F /  20.6 °C 62.2 °F /  16.8 °C 29.97in /  1014.8hPa SSE 2.0mph /  3.2km/h 4.0mph /  6.4km/h 79% 0.00in /  0mm
01:36 68.9 °F /  20.5 °C 62.1 °F /  16.7 °C 29.97in /  1014.8hPa SSE 2.0mph /  3.2km/h 3.0mph /  4.8km/h 79% 0.00in /  0mm
01:41 68.8 °F /  20.4 °C 62.0 °F /  16.7 °C 29.96in /  1014.4hPa SE 4.0mph /  6.4km/h 4.0mph /  6.4km/h 79% 0.00in /  0mm
01:46 68.9 °F /  20.5 °C 62.1 °F /  16.7 °C 29.96in /  1014.4hPa SE 3.0mph /  4.8km/h 4.0mph /  6.4km/h 79% 0.00in /  0mm
01:51 69.2 °F /  20.7 °C 62.1 °F /  16.7 °C 29.96in /  1014.4hPa SE 3.0mph /  4.8km/h 4.0mph /  6.4km/h 78% 0.00in /  0mm
01:52 69.2 °F /  20.7 °C 62.1 °F /  16.7 °C 29.96in /  1014.4hPa SE 2.0mph /  3.2km/h 4.0mph /  6.4km/h 78% 0.00in /  0mm
01:57 69.2 °F /  20.7 °C 62.1 °F /  16.7 °C 29.97in /  1014.8hPa SE 2.0mph /  3.2km/h 3.0mph /  4.8km/h 78% 0.00in /  0mm
02:02 69.0 °F /  20.6 °C 61.9 °F /  16.6 °C 29.97in /  1014.8hPa SE 2.0mph /  3.2km/h 2.0mph /  3.2km/h 78% 0.00in /  0mm
02:07 68.7 °F /  20.4 °C 61.9 °F /  16.6 °C 29.96in /  1014.4hPa SSE 1.0mph /  1.6km/h 3.0mph /  4.8km/h 79% 0.00in /  0mm
02:12 68.5 °F /  20.3 °C 61.7 °F /  16.5 °C 29.97in /  1014.8hPa South 2.0mph /  3.2km/h 5.0mph /  8km/h 79% 0.00in /  0mm
02:17 68.5 °F /  20.3 °C 61.7 °F /  16.5 °C 29.97in /  1014.8hPa SSE 1.0mph /  1.6km/h 3.0mph /  4.8km/h 79% 0.00in /  0mm
02:22 68.4 °F /  20.2 °C 61.6 °F /  16.4 °C 29.96in /  1014.4hPa SSE 1.0mph /  1.6km/h 1.0mph /  1.6km/h 79% 0.00in /  0mm
02:27 68.2 °F /  20.1 °C 61.8 °F /  16.6 °C 29.97in /  1014.8hPa SE 2.0mph /  3.2km/h 2.0mph /  3.2km/h 80% 0.00in /  0mm
02:32 68.0 °F /  20 °C 61.6 °F /  16.4 °C 29.97in /  1014.8hPa SE 1.0mph /  1.6km/h 2.0mph /  3.2km/h 80% 0.00in /  0mm
02:37 67.9 °F /  19.9 °C 61.5 °F /  16.4 °C 29.97in /  1014.8hPa Calm   1.0mph /  1.6km/h 80% 0.00in /  0mm
02:42 67.5 °F /  19.7 °C 61.1 °F /  16.2 °C 29.97in /  1014.8hPa Calm     80% 0.00in /  0mm
02:47 67.1 °F /  19.5 °C 61.4 °F /  16.3 °C 29.97in /  1014.8hPa Calm     82% 0.00in /  0mm
02:52 66.9 °F /  19.4 °C 61.6 °F /  16.4 °C 29.97in /  1014.8hPa Calm     83% 0.00in /  0mm
02:57 66.9 °F /  19.4 °C 61.6 °F /  16.4 °C 29.97in /  1014.8hPa Calm   1.0mph /  1.6km/h 83% 0.00in /  0mm
03:02 66.8 °F /  19.3 °C 61.5 °F /  16.4 °C 29.98in /  1015.1hPa Calm     83% 0.00in /  0mm
03:07 66.7 °F /  19.3 °C 61.4 °F /  16.3 °C 29.98in /  1015.1hPa Calm   1.0mph /  1.6km/h 83% 0.00in /  0mm
03:12 66.7 °F /  19.3 °C 61.4 °F /  16.3 °C 29.97in /  1014.8hPa Calm   1.0mph /  1.6km/h 83% 0.00in /  0mm
03:18 66.2 °F /  19 °C 60.9 °F /  16.1 °C 29.98in /  1015.1hPa SE 2.0mph /  3.2km/h 2.0mph /  3.2km/h 83% 0.00in /  0mm
03:23 65.0 °F /  18.3 °C 60.4 °F /  15.8 °C 29.98in /  1015.1hPa NNW 2.0mph /  3.2km/h 2.0mph /  3.2km/h 85% 0.00in /  0mm
03:28 64.4 °F /  18 °C 60.5 °F /  15.8 °C 29.98in /  1015.1hPa North 1.0mph /  1.6km/h 2.0mph /  3.2km/h 87% 0.00in /  0mm
03:33 64.2 °F /  17.9 °C 60.6 °F /  15.9 °C 29.98in /  1015.1hPa North 1.0mph /  1.6km/h 2.0mph /  3.2km/h 88% 0.00in /  0mm
03:38 63.9 °F /  17.7 °C 60.6 °F /  15.9 °C 29.98in /  1015.1hPa NNW 1.0mph /  1.6km/h 1.0mph /  1.6km/h 89% 0.00in /  0mm
03:43 63.8 °F /  17.7 °C 60.5 °F /  15.8 °C 29.99in /  1015.5hPa Calm     89% 0.00in /  0mm
03:48 63.7 °F /  17.6 °C 60.4 °F /  15.8 °C 29.99in /  1015.5hPa Calm     89% 0.00in /  0mm
03:53 63.5 °F /  17.5 °C 60.2 °F /  15.7 °C 29.99in /  1015.5hPa Calm     89% 0.00in /  0mm
03:58 63.3 °F /  17.4 °C 60.3 °F /  15.7 °C 30.00in /  1015.8hPa Calm     90% 0.00in /  0mm
04:04 63.0 °F /  17.2 °C 60.0 °F /  15.6 °C 30.00in /  1015.8hPa Calm     90% 0.00in /  0mm
04:09 62.9 °F /  17.2 °C 60.2 °F /  15.7 °C 30.00in /  1015.8hPa Calm     91% 0.00in /  0mm
04:14 62.9 °F /  17.2 °C 60.2 °F /  15.7 °C 30.00in /  1015.8hPa NNW 1.0mph /  1.6km/h 1.0mph /  1.6km/h 91% 0.00in /  0mm
04:19 62.7 °F /  17.1 °C 60.0 °F /  15.6 °C 30.00in /  1015.8hPa NNW 1.0mph /  1.6km/h 2.0mph /  3.2km/h 91% 0.00in /  0mm
04:24 62.6 °F /  17 °C 59.9 °F /  15.5 °C 30.00in /  1015.8hPa Calm   1.0mph /  1.6km/h 91% 0.00in /  0mm
04:29 62.9 °F /  17.2 °C 60.5 °F /  15.8 °C 30.01in /  1016.1hPa Calm     92% 0.00in /  0mm
04:34 63.1 °F /  17.3 °C 60.7 °F /  15.9 °C 30.01in /  1016.1hPa Calm     92% 0.00in /  0mm
04:39 63.4 °F /  17.4 °C 60.7 °F /  15.9 °C 30.01in /  1016.1hPa Calm     91% 0.00in /  0mm
04:44 63.8 °F /  17.7 °C 60.8 °F /  16 °C 30.01in /  1016.1hPa Calm     90% 0.00in /  0mm
04:49 64.1 °F /  17.8 °C 61.1 °F /  16.2 °C 30.01in /  1016.1hPa Calm     90% 0.00in /  0mm
04:54 64.1 °F /  17.8 °C 60.8 °F /  16 °C 30.01in /  1016.1hPa Calm     89% 0.00in /  0mm
04:59 63.9 °F /  17.7 °C 60.6 °F /  15.9 °C 30.00in /  1015.8hPa Calm     89% 0.00in /  0mm
05:04 63.7 °F /  17.6 °C 60.7 °F /  15.9 °C 30.00in /  1015.8hPa Calm     90% 0.00in /  0mm
05:09 63.6 °F /  17.6 °C 60.6 °F /  15.9 °C 30.00in /  1015.8hPa Calm     90% 0.00in /  0mm
05:14 63.4 °F /  17.4 °C 60.4 °F /  15.8 °C 30.01in /  1016.1hPa Calm     90% 0.00in /  0mm
05:19 63.1 °F /  17.3 °C 60.1 °F /  15.6 °C 30.00in /  1015.8hPa Calm     90% 0.00in /  0mm
05:24 62.8 °F /  17.1 °C 59.8 °F /  15.4 °C 30.01in /  1016.1hPa Calm     90% 0.00in /  0mm
05:29 62.5 °F /  16.9 °C 59.8 °F /  15.4 °C 30.01in /  1016.1hPa Calm     91% 0.00in /  0mm
05:34 62.2 °F /  16.8 °C 59.5 °F /  15.3 °C 30.01in /  1016.1hPa Calm     91% 0.00in /  0mm
05:39 62.6 °F /  17 °C 60.2 °F /  15.7 °C 30.00in /  1015.8hPa East 2.0mph /  3.2km/h 2.0mph /  3.2km/h 92% 0.00in /  0mm
05:45 63.0 °F /  17.2 °C 60.6 °F /  15.9 °C 30.00in /  1015.8hPa East 1.0mph /  1.6km/h 2.0mph /  3.2km/h 92% 0.00in /  0mm
05:50 63.4 °F /  17.4 °C 60.7 °F /  15.9 °C 30.00in /  1015.8hPa East 1.0mph /  1.6km/h 1.0mph /  1.6km/h 91% 0.00in /  0mm
05:55 63.7 °F /  17.6 °C 60.7 °F /  15.9 °C 30.00in /  1015.8hPa Calm   1.0mph /  1.6km/h 90% 0.00in /  0mm
06:00 63.8 °F /  17.7 °C 60.8 °F /  16 °C 30.00in /  1015.8hPa Calm   1.0mph /  1.6km/h 90% 0.00in /  0mm
06:05 63.6 °F /  17.6 °C 60.6 °F /  15.9 °C 30.00in /  1015.8hPa Calm   1.0mph /  1.6km/h 90% 0.00in /  0mm
06:10 63.3 °F /  17.4 °C 60.3 °F /  15.7 °C 30.00in /  1015.8hPa Calm     90% 0.00in /  0mm
06:15 63.0 °F /  17.2 °C 60.0 °F /  15.6 °C 30.00in /  1015.8hPa Calm     90% 0.00in /  0mm
06:20 62.9 °F /  17.2 °C 60.2 °F /  15.7 °C 30.00in /  1015.8hPa East 2.0mph /  3.2km/h 2.0mph /  3.2km/h 91% 0.00in /  0mm
06:25 62.7 °F /  17.1 °C 59.7 °F /  15.4 °C 30.00in /  1015.8hPa Calm   2.0mph /  3.2km/h 90% 0.00in /  0mm
06:30 62.1 °F /  16.7 °C 59.1 °F /  15.1 °C 30.00in /  1015.8hPa ESE 1.0mph /  1.6km/h 1.0mph /  1.6km/h 90% 0.00in /  0mm
06:35 62.1 °F /  16.7 °C 59.5 °F /  15.3 °C 30.00in /  1015.8hPa Calm   1.0mph /  1.6km/h 91% 0.00in /  0mm
06:40 62.1 °F /  16.7 °C 59.5 °F /  15.3 °C 30.01in /  1016.1hPa Calm   1.0mph /  1.6km/h 91% 0.00in /  0mm
06:45 62.2 °F /  16.8 °C 59.8 °F /  15.4 °C 30.01in /  1016.1hPa Calm   1.0mph /  1.6km/h 92% 0.00in /  0mm
06:50 62.0 °F /  16.7 °C 59.3 °F /  15.2 °C 30.01in /  1016.1hPa Calm     91% 0.00in /  0mm
06:55 61.8 °F /  16.6 °C 59.2 °F /  15.1 °C 30.01in /  1016.1hPa Calm     91% 0.00in /  0mm
07:00 61.6 °F /  16.4 °C 59.3 °F /  15.2 °C 30.01in /  1016.1hPa Calm     92% 0.00in /  0mm
07:05 61.6 °F /  16.4 °C 59.3 °F /  15.2 °C 30.02in /  1016.5hPa Calm     92% 0.00in /  0mm
07:10 61.5 °F /  16.4 °C 59.2 °F /  15.1 °C 30.02in /  1016.5hPa Calm     92% 0.00in /  0mm
07:15 61.6 °F /  16.4 °C 59.3 °F /  15.2 °C 30.02in /  1016.5hPa Calm     92% 0.00in /  0mm
07:20 61.8 °F /  16.6 °C 59.5 °F /  15.3 °C 30.02in /  1016.5hPa Calm     92% 0.00in /  0mm
07:25 62.1 °F /  16.7 °C 59.8 °F /  15.4 °C 30.02in /  1016.5hPa Calm     92% 0.00in /  0mm
07:30 62.4 °F /  16.9 °C 60.0 °F /  15.6 °C 30.02in /  1016.5hPa Calm     92% 0.00in /  0mm
07:35 62.9 °F /  17.2 °C 60.2 °F /  15.7 °C 30.02in /  1016.5hPa Calm     91% 0.00in /  0mm
07:40 63.3 °F /  17.4 °C 60.6 °F /  15.9 °C 30.03in /  1016.8hPa ESE 2.0mph /  3.2km/h 2.0mph /  3.2km/h 91% 0.00in /  0mm
07:45 63.9 °F /  17.7 °C 60.9 °F /  16.1 °C 30.03in /  1016.8hPa SE 2.0mph /  3.2km/h 4.0mph /  6.4km/h 90% 0.00in /  0mm
07:50 64.5 °F /  18.1 °C 61.2 °F /  16.2 °C 30.03in /  1016.8hPa SE 2.0mph /  3.2km/h 2.0mph /  3.2km/h 89% 0.00in /  0mm
07:55 65.1 °F /  18.4 °C 61.5 °F /  16.4 °C 30.03in /  1016.8hPa ESE 2.0mph /  3.2km/h 2.0mph /  3.2km/h 88% 0.00in /  0mm
08:00 65.6 °F /  18.7 °C 62.0 °F /  16.7 °C 30.02in /  1016.5hPa ESE 1.0mph /  1.6km/h 2.0mph /  3.2km/h 88% 0.00in /  0mm
08:05 65.9 °F /  18.8 °C 61.9 °F /  16.6 °C 30.03in /  1016.8hPa ESE 1.0mph /  1.6km/h 2.0mph /  3.2km/h 87% 0.00in /  0mm
08:10 66.2 °F /  19 °C 62.2 °F /  16.8 °C 30.03in /  1016.8hPa SE 1.0mph /  1.6km/h 3.0mph /  4.8km/h 87% 0.00in /  0mm
08:15 66.7 °F /  19.3 °C 62.7 °F /  17.1 °C 30.03in /  1016.8hPa SSE 2.0mph /  3.2km/h 3.0mph /  4.8km/h 87% 0.00in /  0mm
08:21 67.3 °F /  19.6 °C 63.0 °F /  17.2 °C 30.03in /  1016.8hPa SE 2.0mph /  3.2km/h 3.0mph /  4.8km/h 86% 0.00in /  0mm
08:26 67.7 °F /  19.8 °C 63.4 °F /  17.4 °C 30.03in /  1016.8hPa SSE 2.0mph /  3.2km/h 2.0mph /  3.2km/h 86% 0.00in /  0mm
08:31 68.0 °F /  20 °C 63.3 °F /  17.4 °C 30.03in /  1016.8hPa SSE 4.0mph /  6.4km/h 4.0mph /  6.4km/h 85% 0.00in /  0mm
08:36 68.2 °F /  20.1 °C 63.2 °F /  17.3 °C 30.03in /  1016.8hPa SE 3.0mph /  4.8km/h 6.0mph /  9.7km/h 84% 0.00in /  0mm
08:41 68.5 °F /  20.3 °C 63.1 °F /  17.3 °C 30.03in /  1016.8hPa SSE 5.0mph /  8km/h 7.0mph /  11.3km/h 83% 0.00in /  0mm
08:46 69.0 °F /  20.6 °C 63.6 °F /  17.6 °C 30.03in /  1016.8hPa SSE 6.0mph /  9.7km/h 6.0mph /  9.7km/h 83% 0.00in /  0mm
08:51 69.4 °F /  20.8 °C 63.7 °F /  17.6 °C 30.03in /  1016.8hPa SE 7.0mph /  11.3km/h 7.0mph /  11.3km/h 82% 0.00in /  0mm
08:56 69.7 °F /  20.9 °C 63.6 °F /  17.6 °C 30.03in /  1016.8hPa SE 6.0mph /  9.7km/h 6.0mph /  9.7km/h 81% 0.00in /  0mm
09:01 69.9 °F /  21.1 °C 63.8 °F /  17.7 °C 30.03in /  1016.8hPa SE 3.0mph /  4.8km/h 6.0mph /  9.7km/h 81% 0.00in /  0mm
09:06 70.3 °F /  21.3 °C 64.6 °F /  18.1 °C 30.03in /  1016.8hPa SSE 4.0mph /  6.4km/h 5.0mph /  8km/h 82% 0.00in /  0mm
09:11 70.9 °F /  21.6 °C 64.8 °F /  18.2 °C 30.03in /  1016.8hPa SSE 4.0mph /  6.4km/h 5.0mph /  8km/h 81% 0.00in /  0mm
09:16 71.3 °F /  21.8 °C 64.8 °F /  18.2 °C 30.03in /  1016.8hPa SE 3.0mph /  4.8km/h 6.0mph /  9.7km/h 80% 0.00in /  0mm
09:21 71.6 °F /  22 °C 65.1 °F /  18.4 °C 30.03in /  1016.8hPa SSE 5.0mph /  8km/h 5.0mph /  8km/h 80% 0.00in /  0mm
09:26 72.0 °F /  22.2 °C 65.5 °F /  18.6 °C 30.03in /  1016.8hPa SSE 6.0mph /  9.7km/h 7.0mph /  11.3km/h 80% 0.00in /  0mm
09:31 72.3 °F /  22.4 °C 65.1 °F /  18.4 °C 30.04in /  1017.2hPa SSE 2.0mph /  3.2km/h 6.0mph /  9.7km/h 78% 0.00in /  0mm
09:36 72.6 °F /  22.6 °C 65.3 °F /  18.5 °C 30.04in /  1017.2hPa SSW 3.0mph /  4.8km/h 6.0mph /  9.7km/h 78% 0.00in /  0mm
09:41 73.0 °F /  22.8 °C 65.7 °F /  18.7 °C 30.04in /  1017.2hPa SE 4.0mph /  6.4km/h 4.0mph /  6.4km/h 78% 0.00in /  0mm
09:46 73.6 °F /  23.1 °C 65.9 °F /  18.8 °C 30.04in /  1017.2hPa SSE 3.0mph /  4.8km/h 5.0mph /  8km/h 77% 0.00in /  0mm
09:51 74.2 °F /  23.4 °C 66.5 °F /  19.2 °C 30.04in /  1017.2hPa South 4.0mph /  6.4km/h 6.0mph /  9.7km/h 77% 0.00in /  0mm
09:56 74.8 °F /  23.8 °C 66.3 °F /  19.1 °C 30.04in /  1017.2hPa SW 3.0mph /  4.8km/h 6.0mph /  9.7km/h 75% 0.00in /  0mm
10:01 75.2 °F /  24 °C 66.7 °F /  19.3 °C 30.04in /  1017.2hPa SW 4.0mph /  6.4km/h 6.0mph /  9.7km/h 75% 0.00in /  0mm
10:06 75.5 °F /  24.2 °C 65.8 °F /  18.8 °C 30.04in /  1017.2hPa SSW 3.0mph /  4.8km/h 9.0mph /  14.5km/h 72% 0.00in /  0mm
10:11 76.1 °F /  24.5 °C 66.8 °F /  19.3 °C 30.04in /  1017.2hPa SW 4.0mph /  6.4km/h 6.0mph /  9.7km/h 73% 0.00in /  0mm
10:16 76.7 °F /  24.8 °C 67.8 °F /  19.9 °C 30.04in /  1017.2hPa WSW 3.0mph /  4.8km/h 6.0mph /  9.7km/h 74% 0.00in /  0mm
10:21 77.0 °F /  25 °C 67.3 °F /  19.6 °C 30.04in /  1017.2hPa WSW 8.0mph /  12.9km/h 8.0mph /  12.9km/h 72% 0.00in /  0mm
10:26 77.2 °F /  25.1 °C 66.7 °F /  19.3 °C 30.04in /  1017.2hPa SW 6.0mph /  9.7km/h 10.0mph /  16.1km/h 70% 0.00in /  0mm
10:31 77.4 °F /  25.2 °C 67.3 °F /  19.6 °C 30.04in /  1017.2hPa WSW 4.0mph /  6.4km/h 9.0mph /  14.5km/h 71% 0.00in /  0mm
10:36 77.4 °F /  25.2 °C 67.3 °F /  19.6 °C 30.05in /  1017.5hPa SSW 6.0mph /  9.7km/h 11.0mph /  17.7km/h 71% 0.00in /  0mm
10:41 77.4 °F /  25.2 °C 67.3 °F /  19.6 °C 30.05in /  1017.5hPa SSW 7.0mph /  11.3km/h 10.0mph /  16.1km/h 71% 0.00in /  0mm
10:46 77.7 °F /  25.4 °C 68.0 °F /  20 °C 30.05in /  1017.5hPa SW 8.0mph /  12.9km/h 11.0mph /  17.7km/h 72% 0.00in /  0mm
10:51 78.0 °F /  25.6 °C 67.4 °F /  19.7 °C 30.05in /  1017.5hPa SW 6.0mph /  9.7km/h 11.0mph /  17.7km/h 70% 0.00in /  0mm
10:56 78.4 °F /  25.8 °C 67.8 °F /  19.9 °C 30.05in /  1017.5hPa SW 7.0mph /  11.3km/h 9.0mph /  14.5km/h 70% 0.00in /  0mm
11:01 79.0 °F /  26.1 °C 68.4 °F /  20.2 °C 30.05in /  1017.5hPa SW 4.0mph /  6.4km/h 8.0mph /  12.9km/h 70% 0.00in /  0mm
11:06 79.2 °F /  26.2 °C 68.6 °F /  20.3 °C 30.05in /  1017.5hPa WSW 6.0mph /  9.7km/h 8.0mph /  12.9km/h 70% 0.00in /  0mm
11:11 79.7 °F /  26.5 °C 68.2 °F /  20.1 °C 30.05in /  1017.5hPa SW 9.0mph /  14.5km/h 12.0mph /  19.3km/h 68% 0.00in /  0mm
11:16 80.0 °F /  26.7 °C 68.5 °F /  20.3 °C 30.05in /  1017.5hPa WSW 4.0mph /  6.4km/h 8.0mph /  12.9km/h 68% 0.00in /  0mm
11:21 80.2 °F /  26.8 °C 67.8 °F /  19.9 °C 30.05in /  1017.5hPa WSW 7.0mph /  11.3km/h 10.0mph /  16.1km/h 66% 0.00in /  0mm
11:26 80.5 °F /  26.9 °C 68.5 °F /  20.3 °C 30.04in /  1017.2hPa SSW 8.0mph /  12.9km/h 8.0mph /  12.9km/h 67% 0.00in /  0mm
11:31 80.9 °F /  27.2 °C 67.6 °F /  19.8 °C 30.05in /  1017.5hPa SW 8.0mph /  12.9km/h 11.0mph /  17.7km/h 64% 0.00in /  0mm
11:37 81.0 °F /  27.2 °C 67.7 °F /  19.8 °C 30.05in /  1017.5hPa SSW 7.0mph /  11.3km/h 12.0mph /  19.3km/h 64% 0.00in /  0mm
11:42 81.0 °F /  27.2 °C 67.7 °F /  19.8 °C 30.05in /  1017.5hPa SSW 9.0mph /  14.5km/h 13.0mph /  20.9km/h 64% 0.00in /  0mm
11:47 81.0 °F /  27.2 °C 67.2 °F /  19.6 °C 30.05in /  1017.5hPa SW 11.0mph /  17.7km/h 14.0mph /  22.5km/h 63% 0.00in /  0mm
11:52 80.8 °F /  27.1 °C 67.5 °F /  19.7 °C 30.05in /  1017.5hPa West 9.0mph /  14.5km/h 12.0mph /  19.3km/h 64% 0.00in /  0mm
11:57 80.5 °F /  26.9 °C 66.8 °F /  19.3 °C 30.05in /  1017.5hPa West 5.0mph /  8km/h 11.0mph /  17.7km/h 63% 0.00in /  0mm
12:02 80.5 °F /  26.9 °C 67.7 °F /  19.8 °C 30.05in /  1017.5hPa WSW 7.0mph /  11.3km/h 11.0mph /  17.7km/h 65% 0.00in /  0mm
12:07 81.0 °F /  27.2 °C 67.2 °F /  19.6 °C 30.05in /  1017.5hPa SW 7.0mph /  11.3km/h 11.0mph /  17.7km/h 63% 0.00in /  0mm
12:12 81.3 °F /  27.4 °C 68.0 °F /  20 °C 30.04in /  1017.2hPa WSW 10.0mph /  16.1km/h 11.0mph /  17.7km/h 64% 0.00in /  0mm
12:17 81.4 °F /  27.4 °C 67.1 °F /  19.5 °C 30.05in /  1017.5hPa SSW 6.0mph /  9.7km/h 13.0mph /  20.9km/h 62% 0.00in /  0mm
12:22 81.3 °F /  27.4 °C 67.1 °F /  19.5 °C 30.04in /  1017.2hPa SW 10.0mph /  16.1km/h 15.0mph /  24.1km/h 62% 0.00in /  0mm
12:27 81.7 °F /  27.6 °C 66.9 °F /  19.4 °C 30.04in /  1017.2hPa SSW 7.0mph /  11.3km/h 13.0mph /  20.9km/h 61% 0.00in /  0mm
12:32 82.2 °F /  27.9 °C 67.9 °F /  19.9 °C 30.03in /  1016.8hPa SW 5.0mph /  8km/h 11.0mph /  17.7km/h 62% 0.00in /  0mm
12:37 82.4 °F /  28 °C 66.7 °F /  19.3 °C 30.03in /  1016.8hPa SW 11.0mph /  17.7km/h 11.0mph /  17.7km/h 59% 0.00in /  0mm
12:42 81.8 °F /  27.7 °C 66.6 °F /  19.2 °C 30.03in /  1016.8hPa SW 8.0mph /  12.9km/h 13.0mph /  20.9km/h 60% 0.00in /  0mm
12:47 81.7 °F /  27.6 °C 66.0 °F /  18.9 °C 30.03in /  1016.8hPa SW 7.0mph /  11.3km/h 12.0mph /  19.3km/h 59% 0.00in /  0mm
12:52 82.4 °F /  28 °C 68.1 °F /  20.1 °C 30.03in /  1016.8hPa SW 3.0mph /  4.8km/h 12.0mph /  19.3km/h 62% 0.00in /  0mm
12:57 83.0 °F /  28.3 °C 66.7 °F /  19.3 °C 30.02in /  1016.5hPa SW 11.0mph /  17.7km/h 11.0mph /  17.7km/h 58% 0.00in /  0mm
13:02 83.0 °F /  28.3 °C 65.7 °F /  18.7 °C 30.02in /  1016.5hPa WSW 7.0mph /  11.3km/h 11.0mph /  17.7km/h 56% 0.00in /  0mm
13:07 82.8 °F /  28.2 °C 65.0 °F /  18.3 °C 30.02in /  1016.5hPa WSW 10.0mph /  16.1km/h 13.0mph /  20.9km/h 55% 0.00in /  0mm
13:12 83.1 °F /  28.4 °C 65.8 °F /  18.8 °C 30.01in /  1016.1hPa West 11.0mph /  17.7km/h 11.0mph /  17.7km/h 56% 0.00in /  0mm
13:17 83.3 °F /  28.5 °C 67.0 °F /  19.4 °C 30.01in /  1016.1hPa SW 6.0mph /  9.7km/h 10.0mph /  16.1km/h 58% 0.00in /  0mm
13:22 83.5 °F /  28.6 °C 65.7 °F /  18.7 °C 30.01in /  1016.1hPa SSE 10.0mph /  16.1km/h 10.0mph /  16.1km/h 55% 0.00in /  0mm
13:27 83.8 °F /  28.8 °C 66.4 °F /  19.1 °C 30.01in /  1016.1hPa WSW 7.0mph /  11.3km/h 11.0mph /  17.7km/h 56% 0.00in /  0mm
13:32 84.0 °F /  28.9 °C 63.9 °F /  17.7 °C 30.01in /  1016.1hPa SSE 5.0mph /  8km/h 13.0mph /  20.9km/h 51% 0.00in /  0mm
13:37 83.5 °F /  28.6 °C 64.6 °F /  18.1 °C 30.01in /  1016.1hPa SSW 6.0mph /  9.7km/h 12.0mph /  19.3km/h 53% 0.00in /  0mm
13:43 83.5 °F /  28.6 °C 66.2 °F /  19 °C 30.00in /  1015.8hPa SSE 8.0mph /  12.9km/h 9.0mph /  14.5km/h 56% 0.00in /  0mm
13:47 84.1 °F /  28.9 °C 65.7 °F /  18.7 °C 30.01in /  1016.1hPa WSW 6.0mph /  9.7km/h 10.0mph /  16.1km/h 54% 0.00in /  0mm
13:53 83.9 °F /  28.8 °C 64.9 °F /  18.3 °C 30.00in /  1015.8hPa SW 6.0mph /  9.7km/h 10.0mph /  16.1km/h 53% 0.00in /  0mm
13:58 83.4 °F /  28.6 °C 65.0 °F /  18.3 °C 30.00in /  1015.8hPa SW 8.0mph /  12.9km/h 9.0mph /  14.5km/h 54% 0.00in /  0mm
14:03 83.4 °F /  28.6 °C 66.1 °F /  18.9 °C 30.00in /  1015.8hPa SW 8.0mph /  12.9km/h 9.0mph /  14.5km/h 56% 0.00in /  0mm
14:08 83.4 °F /  28.6 °C 66.1 °F /  18.9 °C 30.00in /  1015.8hPa SSE 5.0mph /  8km/h 7.0mph /  11.3km/h 56% 0.00in /  0mm
14:13 84.1 °F /  28.9 °C 66.2 °F /  19 °C 30.00in /  1015.8hPa SW 7.0mph /  11.3km/h 13.0mph /  20.9km/h 55% 0.00in /  0mm
14:18 84.1 °F /  28.9 °C 66.7 °F /  19.3 °C 29.99in /  1015.5hPa SSW 7.0mph /  11.3km/h 10.0mph /  16.1km/h 56% 0.00in /  0mm
14:23 84.1 °F /  28.9 °C 65.7 °F /  18.7 °C 29.99in /  1015.5hPa WSW 3.0mph /  4.8km/h 7.0mph /  11.3km/h 54% 0.00in /  0mm
14:28 84.8 °F /  29.3 °C 66.3 °F /  19.1 °C 29.99in /  1015.5hPa SSE 7.0mph /  11.3km/h 12.0mph /  19.3km/h 54% 0.00in /  0mm
14:33 84.6 °F /  29.2 °C 64.5 °F /  18.1 °C 29.99in /  1015.5hPa SW 10.0mph /  16.1km/h 11.0mph /  17.7km/h 51% 0.00in /  0mm
14:38 84.8 °F /  29.3 °C 65.8 °F /  18.8 °C 29.99in /  1015.5hPa SSE 6.0mph /  9.7km/h 12.0mph /  19.3km/h 53% 0.00in /  0mm
14:43 84.2 °F /  29 °C 64.7 °F /  18.2 °C 29.99in /  1015.5hPa SE 9.0mph /  14.5km/h 10.0mph /  16.1km/h 52% 0.00in /  0mm
14:48 83.5 °F /  28.6 °C 65.1 °F /  18.4 °C 29.98in /  1015.1hPa South 6.0mph /  9.7km/h 10.0mph /  16.1km/h 54% 0.00in /  0mm
14:53 83.9 °F /  28.8 °C 64.9 °F /  18.3 °C 29.98in /  1015.1hPa SW 10.0mph /  16.1km/h 11.0mph /  17.7km/h 53% 0.00in /  0mm
14:58 84.6 °F /  29.2 °C 65.1 °F /  18.4 °C 29.98in /  1015.1hPa SSW 7.0mph /  11.3km/h 12.0mph /  19.3km/h 52% 0.00in /  0mm
15:03 85.0 °F /  29.4 °C 63.7 °F /  17.6 °C 29.98in /  1015.1hPa SSW 10.0mph /  16.1km/h 11.0mph /  17.7km/h 49% 0.00in /  0mm
15:08 84.7 °F /  29.3 °C 64.0 °F /  17.8 °C 29.98in /  1015.1hPa SSE 5.0mph /  8km/h 9.0mph /  14.5km/h 50% 0.00in /  0mm
15:13 84.4 °F /  29.1 °C 64.9 °F /  18.3 °C 29.98in /  1015.1hPa SSE 9.0mph /  14.5km/h 12.0mph /  19.3km/h 52% 0.00in /  0mm
15:18 84.3 °F /  29.1 °C 64.2 °F /  17.9 °C 29.98in /  1015.1hPa SE 5.0mph /  8km/h 11.0mph /  17.7km/h 51% 0.00in /  0mm
15:23 84.1 °F /  28.9 °C 64.6 °F /  18.1 °C 29.98in /  1015.1hPa SW 4.0mph /  6.4km/h 8.0mph /  12.9km/h 52% 0.00in /  0mm
15:28 84.1 °F /  28.9 °C 65.7 °F /  18.7 °C 29.98in /  1015.1hPa South 3.0mph /  4.8km/h 7.0mph /  11.3km/h 54% 0.00in /  0mm
15:33 84.0 °F /  28.9 °C 63.9 °F /  17.7 °C 29.97in /  1014.8hPa SSW 10.0mph /  16.1km/h 10.0mph /  16.1km/h 51% 0.00in /  0mm
15:38 84.5 °F /  29.2 °C 65.5 °F /  18.6 °C 29.97in /  1014.8hPa SSW 6.0mph /  9.7km/h 8.0mph /  12.9km/h 53% 0.00in /  0mm
15:43 85.2 °F /  29.6 °C 64.5 °F /  18.1 °C 29.97in /  1014.8hPa SSW 5.0mph /  8km/h 11.0mph /  17.7km/h 50% 0.00in /  0mm
15:48 85.2 °F /  29.6 °C 65.1 °F /  18.4 °C 29.97in /  1014.8hPa South 7.0mph /  11.3km/h 9.0mph /  14.5km/h 51% 0.00in /  0mm
15:53 85.1 °F /  29.5 °C 64.4 °F /  18 °C 29.97in /  1014.8hPa SW 4.0mph /  6.4km/h 13.0mph /  20.9km/h 50% 0.00in /  0mm
15:58 85.2 °F /  29.6 °C 64.5 °F /  18.1 °C 29.97in /  1014.8hPa SW 4.0mph /  6.4km/h 12.0mph /  19.3km/h 50% 0.00in /  0mm
16:04 85.0 °F /  29.4 °C 63.7 °F /  17.6 °C 29.97in /  1014.8hPa SSE 11.0mph /  17.7km/h 15.0mph /  24.1km/h 49% 0.00in /  0mm
16:09 84.7 °F /  29.3 °C 64.0 °F /  17.8 °C 29.96in /  1014.4hPa South 9.0mph /  14.5km/h 12.0mph /  19.3km/h 50% 0.00in /  0mm
16:14 84.8 °F /  29.3 °C 64.1 °F /  17.8 °C 29.96in /  1014.4hPa South 9.0mph /  14.5km/h 14.0mph /  22.5km/h 50% 0.00in /  0mm
16:19 84.7 °F /  29.3 °C 64.6 °F /  18.1 °C 29.95in /  1014.1hPa SSE 9.0mph /  14.5km/h 12.0mph /  19.3km/h 51% 0.00in /  0mm
16:24 84.5 °F /  29.2 °C 64.4 °F /  18 °C 29.95in /  1014.1hPa SSE 7.0mph /  11.3km/h 10.0mph /  16.1km/h 51% 0.00in /  0mm
16:29 84.4 °F /  29.1 °C 63.8 °F /  17.7 °C 29.95in /  1014.1hPa SSW 5.0mph /  8km/h 11.0mph /  17.7km/h 50% 0.00in /  0mm
16:34 84.3 °F /  29.1 °C 64.2 °F /  17.9 °C 29.95in /  1014.1hPa SSE 6.0mph /  9.7km/h 8.0mph /  12.9km/h 51% 0.00in /  0mm
16:39 84.1 °F /  28.9 °C 64.0 °F /  17.8 °C 29.95in /  1014.1hPa SSW 7.0mph /  11.3km/h 12.0mph /  19.3km/h 51% 0.00in /  0mm
16:44 83.9 °F /  28.8 °C 64.4 °F /  18 °C 29.95in /  1014.1hPa SE 5.0mph /  8km/h 8.0mph /  12.9km/h 52% 0.00in /  0mm
16:49 84.0 °F /  28.9 °C 64.5 °F /  18.1 °C 29.95in /  1014.1hPa SW 6.0mph /  9.7km/h 11.0mph /  17.7km/h 52% 0.00in /  0mm
16:54 84.1 °F /  28.9 °C 64.6 °F /  18.1 °C 29.95in /  1014.1hPa South 6.0mph /  9.7km/h 13.0mph /  20.9km/h 52% 0.00in /  0mm
16:59 84.3 °F /  29.1 °C 64.8 °F /  18.2 °C 29.94in /  1013.8hPa South 10.0mph /  16.1km/h 10.0mph /  16.1km/h 52% 0.00in /  0mm
17:04 84.4 °F /  29.1 °C 65.4 °F /  18.6 °C 29.94in /  1013.8hPa SSE 6.0mph /  9.7km/h 10.0mph /  16.1km/h 53% 0.00in /  0mm
17:09 84.5 °F /  29.2 °C 65.5 °F /  18.6 °C 29.94in /  1013.8hPa South 5.0mph /  8km/h 9.0mph /  14.5km/h 53% 0.00in /  0mm
17:14 84.5 °F /  29.2 °C 64.4 °F /  18 °C 29.94in /  1013.8hPa SSW 4.0mph /  6.4km/h 8.0mph /  12.9km/h 51% 0.00in /  0mm
17:19 84.7 °F /  29.3 °C 64.6 °F /  18.1 °C 29.94in /  1013.8hPa SW 4.0mph /  6.4km/h 11.0mph /  17.7km/h 51% 0.00in /  0mm
17:24 85.1 °F /  29.5 °C 65.0 °F /  18.3 °C 29.94in /  1013.8hPa SSW 7.0mph /  11.3km/h 9.0mph /  14.5km/h 51% 0.00in /  0mm
17:29 85.1 °F /  29.5 °C 65.0 °F /  18.3 °C 29.94in /  1013.8hPa SSE 2.0mph /  3.2km/h 9.0mph /  14.5km/h 51% 0.00in /  0mm
17:34 85.5 °F /  29.7 °C 65.3 °F /  18.5 °C 29.94in /  1013.8hPa South 7.0mph /  11.3km/h 9.0mph /  14.5km/h 51% 0.00in /  0mm
17:39 85.2 °F /  29.6 °C 66.2 °F /  19 °C 29.94in /  1013.8hPa SSW 5.0mph /  8km/h 9.0mph /  14.5km/h 53% 0.00in /  0mm
17:44 84.6 °F /  29.2 °C 65.6 °F /  18.7 °C 29.94in /  1013.8hPa South 6.0mph /  9.7km/h 12.0mph /  19.3km/h 53% 0.00in /  0mm
17:49 84.1 °F /  28.9 °C 65.7 °F /  18.7 °C 29.94in /  1013.8hPa SE 8.0mph /  12.9km/h 10.0mph /  16.1km/h 54% 0.00in /  0mm
17:54 84.0 °F /  28.9 °C 66.1 °F /  18.9 °C 29.94in /  1013.8hPa SSE 10.0mph /  16.1km/h 13.0mph /  20.9km/h 55% 0.00in /  0mm
17:59 84.1 °F /  28.9 °C 65.7 °F /  18.7 °C 29.94in /  1013.8hPa South 4.0mph /  6.4km/h 12.0mph /  19.3km/h 54% 0.00in /  0mm
18:04 84.1 °F /  28.9 °C 64.6 °F /  18.1 °C 29.94in /  1013.8hPa SSE 9.0mph /  14.5km/h 10.0mph /  16.1km/h 52% 0.00in /  0mm
18:09 84.7 °F /  29.3 °C 66.2 °F /  19 °C 29.94in /  1013.8hPa South 6.0mph /  9.7km/h 6.0mph /  9.7km/h 54% 0.00in /  0mm
18:14 84.9 °F /  29.4 °C 65.9 °F /  18.8 °C 29.94in /  1013.8hPa SE 6.0mph /  9.7km/h 11.0mph /  17.7km/h 53% 0.00in /  0mm
18:19 84.9 °F /  29.4 °C 65.3 °F /  18.5 °C 29.94in /  1013.8hPa SSE 7.0mph /  11.3km/h 10.0mph /  16.1km/h 52% 0.00in /  0mm
18:24 85.0 °F /  29.4 °C 66.0 °F /  18.9 °C 29.94in /  1013.8hPa South 4.0mph /  6.4km/h 10.0mph /  16.1km/h 53% 0.00in /  0mm
18:30 84.9 °F /  29.4 °C 65.3 °F /  18.5 °C 29.93in /  1013.4hPa SSW 6.0mph /  9.7km/h 11.0mph /  17.7km/h 52% 0.00in /  0mm
18:35 84.7 °F /  29.3 °C 65.1 °F /  18.4 °C 29.93in /  1013.4hPa SSW 4.0mph /  6.4km/h 10.0mph /  16.1km/h 52% 0.00in /  0mm
18:40 84.7 °F /  29.3 °C 65.7 °F /  18.7 °C 29.93in /  1013.4hPa SSE 5.0mph /  8km/h 9.0mph /  14.5km/h 53% 0.00in /  0mm
18:45 84.8 °F /  29.3 °C 65.8 °F /  18.8 °C 29.93in /  1013.4hPa SSW 9.0mph /  14.5km/h 9.0mph /  14.5km/h 53% 0.00in /  0mm
18:50 84.8 °F /  29.3 °C 65.8 °F /  18.8 °C 29.93in /  1013.4hPa SSE 7.0mph /  11.3km/h 7.0mph /  11.3km/h 53% 0.00in /  0mm
18:55 84.5 °F /  29.2 °C 65.5 °F /  18.6 °C 29.93in /  1013.4hPa SW 6.0mph /  9.7km/h 10.0mph /  16.1km/h 53% 0.00in /  0mm
19:00 84.3 °F /  29.1 °C 64.8 °F /  18.2 °C 29.93in /  1013.4hPa WSW 6.0mph /  9.7km/h 8.0mph /  12.9km/h 52% 0.00in /  0mm
19:05 84.3 °F /  29.1 °C 65.9 °F /  18.8 °C 29.93in /  1013.4hPa SSW 3.0mph /  4.8km/h 5.0mph /  8km/h 54% 0.00in /  0mm
19:10 84.1 °F /  28.9 °C 65.1 °F /  18.4 °C 29.93in /  1013.4hPa SW 6.0mph /  9.7km/h 6.0mph /  9.7km/h 53% 0.00in /  0mm
19:15 83.9 °F /  28.8 °C 66.0 °F /  18.9 °C 29.93in /  1013.4hPa SSW 2.0mph /  3.2km/h 7.0mph /  11.3km/h 55% 0.00in /  0mm
19:20 83.7 °F /  28.7 °C 65.8 °F /  18.8 °C 29.93in /  1013.4hPa SSW 2.0mph /  3.2km/h 5.0mph /  8km/h 55% 0.00in /  0mm
19:25 83.8 °F /  28.8 °C 65.9 °F /  18.8 °C 29.93in /  1013.4hPa SSE 2.0mph /  3.2km/h 5.0mph /  8km/h 55% 0.00in /  0mm
19:30 83.9 °F /  28.8 °C 66.0 °F /  18.9 °C 29.93in /  1013.4hPa South 1.0mph /  1.6km/h 4.0mph /  6.4km/h 55% 0.00in /  0mm
19:35 83.6 °F /  28.7 °C 66.8 °F /  19.3 °C 29.92in /  1013.1hPa SSW 2.0mph /  3.2km/h 3.0mph /  4.8km/h 57% 0.00in /  0mm
19:40 83.6 °F /  28.7 °C 66.3 °F /  19.1 °C 29.92in /  1013.1hPa South 3.0mph /  4.8km/h 4.0mph /  6.4km/h 56% 0.00in /  0mm
19:46 83.4 °F /  28.6 °C 66.1 °F /  18.9 °C 29.92in /  1013.1hPa SW 1.0mph /  1.6km/h 2.0mph /  3.2km/h 56% 0.00in /  0mm
19:51 83.0 °F /  28.3 °C 66.2 °F /  19 °C 29.92in /  1013.1hPa SSW 2.0mph /  3.2km/h 4.0mph /  6.4km/h 57% 0.00in /  0mm
19:56 82.4 °F /  28 °C 66.2 °F /  19 °C 29.92in /  1013.1hPa SSW 1.0mph /  1.6km/h 2.0mph /  3.2km/h 58% 0.00in /  0mm
20:01 82.3 °F /  27.9 °C 67.0 °F /  19.4 °C 29.93in /  1013.4hPa SE 1.0mph /  1.6km/h 1.0mph /  1.6km/h 60% 0.00in /  0mm
20:06 81.7 °F /  27.6 °C 66.5 °F /  19.2 °C 29.93in /  1013.4hPa SE 1.0mph /  1.6km/h 2.0mph /  3.2km/h 60% 0.00in /  0mm
20:11 81.1 °F /  27.3 °C 66.9 °F /  19.4 °C 29.93in /  1013.4hPa South 1.0mph /  1.6km/h 1.0mph /  1.6km/h 62% 0.00in /  0mm
20:16 80.8 °F /  27.1 °C 66.6 °F /  19.2 °C 29.93in /  1013.4hPa Calm   1.0mph /  1.6km/h 62% 0.00in /  0mm
20:21 80.2 °F /  26.8 °C 66.0 °F /  18.9 °C 29.93in /  1013.4hPa Calm   1.0mph /  1.6km/h 62% 0.00in /  0mm
20:26 79.7 °F /  26.5 °C 66.5 °F /  19.2 °C 29.93in /  1013.4hPa Calm     64% 0.00in /  0mm
20:31 79.2 °F /  26.2 °C 66.0 °F /  18.9 °C 29.93in /  1013.4hPa Calm     64% 0.00in /  0mm
20:36 78.7 °F /  25.9 °C 66.4 °F /  19.1 °C 29.93in /  1013.4hPa Calm     66% 0.00in /  0mm
20:41 78.2 °F /  25.7 °C 65.9 °F /  18.8 °C 29.93in /  1013.4hPa Calm   1.0mph /  1.6km/h 66% 0.00in /  0mm
20:46 77.8 °F /  25.4 °C 66.0 °F /  18.9 °C 29.93in /  1013.4hPa Calm   1.0mph /  1.6km/h 67% 0.00in /  0mm
20:51 77.3 °F /  25.2 °C 65.5 °F /  18.6 °C 29.93in /  1013.4hPa SE 1.0mph /  1.6km/h 1.0mph /  1.6km/h 67% 0.00in /  0mm
20:56 77.0 °F /  25 °C 65.6 °F /  18.7 °C 29.93in /  1013.4hPa SE 2.0mph /  3.2km/h 3.0mph /  4.8km/h 68% 0.00in /  0mm
21:01 76.4 °F /  24.7 °C 65.1 °F /  18.4 °C 29.93in /  1013.4hPa ESE 2.0mph /  3.2km/h 2.0mph /  3.2km/h 68% 0.00in /  0mm
21:06 75.9 °F /  24.4 °C 65.0 °F /  18.3 °C 29.93in /  1013.4hPa SE 2.0mph /  3.2km/h 2.0mph /  3.2km/h 69% 0.00in /  0mm
21:11 75.8 °F /  24.3 °C 64.9 °F /  18.3 °C 29.94in /  1013.8hPa SE 1.0mph /  1.6km/h 2.0mph /  3.2km/h 69% 0.00in /  0mm
21:16 75.6 °F /  24.2 °C 64.7 °F /  18.2 °C 29.93in /  1013.4hPa SE 3.0mph /  4.8km/h 3.0mph /  4.8km/h 69% 0.00in /  0mm
21:21 75.7 °F /  24.3 °C 64.8 °F /  18.2 °C 29.93in /  1013.4hPa SE 2.0mph /  3.2km/h 2.0mph /  3.2km/h 69% 0.00in /  0mm
21:26 75.3 °F /  24.1 °C 64.8 °F /  18.2 °C 29.94in /  1013.8hPa SE 1.0mph /  1.6km/h 2.0mph /  3.2km/h 70% 0.00in /  0mm
21:31 75.0 °F /  23.9 °C 64.6 °F /  18.1 °C 29.94in /  1013.8hPa SSE 1.0mph /  1.6km/h 1.0mph /  1.6km/h 70% 0.00in /  0mm
21:36 74.8 °F /  23.8 °C 64.4 °F /  18 °C 29.94in /  1013.8hPa Calm   1.0mph /  1.6km/h 70% 0.00in /  0mm
21:41 74.5 °F /  23.6 °C 64.5 °F /  18.1 °C 29.94in /  1013.8hPa Calm     71% 0.00in /  0mm
21:46 74.1 °F /  23.4 °C 64.5 °F /  18.1 °C 29.94in /  1013.8hPa ESE 2.0mph /  3.2km/h 2.0mph /  3.2km/h 72% 0.00in /  0mm
21:51 74.0 °F /  23.3 °C 64.4 °F /  18 °C 29.94in /  1013.8hPa SE 1.0mph /  1.6km/h 3.0mph /  4.8km/h 72% 0.00in /  0mm
21:57 73.5 °F /  23.1 °C 64.3 °F /  17.9 °C 29.94in /  1013.8hPa SSE 1.0mph /  1.6km/h 2.0mph /  3.2km/h 73% 0.00in /  0mm
22:02 73.2 °F /  22.9 °C 64.4 °F /  18 °C 29.94in /  1013.8hPa SE 2.0mph /  3.2km/h 3.0mph /  4.8km/h 74% 0.00in /  0mm
22:07 73.1 °F /  22.8 °C 64.3 °F /  17.9 °C 29.95in /  1014.1hPa South 2.0mph /  3.2km/h 3.0mph /  4.8km/h 74% 0.00in /  0mm
22:12 73.2 °F /  22.9 °C 64.8 °F /  18.2 °C 29.95in /  1014.1hPa SSE 2.0mph /  3.2km/h 2.0mph /  3.2km/h 75% 0.00in /  0mm
22:17 73.2 °F /  22.9 °C 64.8 °F /  18.2 °C 29.95in /  1014.1hPa SE 2.0mph /  3.2km/h 3.0mph /  4.8km/h 75% 0.00in /  0mm
22:22 73.3 °F /  22.9 °C 64.5 °F /  18.1 °C 29.95in /  1014.1hPa SE 2.0mph /  3.2km/h 2.0mph /  3.2km/h 74% 0.00in /  0mm
22:27 73.2 °F /  22.9 °C 64.4 °F /  18 °C 29.95in /  1014.1hPa SE 1.0mph /  1.6km/h 2.0mph /  3.2km/h 74% 0.00in /  0mm
22:32 73.2 °F /  22.9 °C 64.4 °F /  18 °C 29.95in /  1014.1hPa SE 1.0mph /  1.6km/h 2.0mph /  3.2km/h 74% 0.00in /  0mm
22:37 73.4 °F /  23 °C 64.6 °F /  18.1 °C 29.95in /  1014.1hPa SSE 1.0mph /  1.6km/h 2.0mph /  3.2km/h 74% 0.00in /  0mm
22:42 73.3 °F /  22.9 °C 64.5 °F /  18.1 °C 29.95in /  1014.1hPa SE 2.0mph /  3.2km/h 2.0mph /  3.2km/h 74% 0.00in /  0mm
22:47 73.2 °F /  22.9 °C 64.4 °F /  18 °C 29.95in /  1014.1hPa SSE 1.0mph /  1.6km/h 2.0mph /  3.2km/h 74% 0.00in /  0mm
22:52 73.2 °F /  22.9 °C 64.4 °F /  18 °C 29.95in /  1014.1hPa South 1.0mph /  1.6km/h 2.0mph /  3.2km/h 74% 0.00in /  0mm
22:57 73.1 °F /  22.8 °C 64.3 °F /  17.9 °C 29.96in /  1014.4hPa SE 2.0mph /  3.2km/h 2.0mph /  3.2km/h 74% 0.00in /  0mm
23:02 73.0 °F /  22.8 °C 64.6 °F /  18.1 °C 29.95in /  1014.1hPa SSE 2.0mph /  3.2km/h 2.0mph /  3.2km/h 75% 0.00in /  0mm
23:07 72.9 °F /  22.7 °C 64.5 °F /  18.1 °C 29.95in /  1014.1hPa SSW 1.0mph /  1.6km/h 2.0mph /  3.2km/h 75% 0.00in /  0mm
23:12 73.0 °F /  22.8 °C 64.6 °F /  18.1 °C 29.95in /  1014.1hPa South 1.0mph /  1.6km/h 1.0mph /  1.6km/h 75% 0.00in /  0mm
23:17 73.2 °F /  22.9 °C 65.2 °F /  18.4 °C 29.95in /  1014.1hPa SSE 2.0mph /  3.2km/h 3.0mph /  4.8km/h 76% 0.00in /  0mm
23:22 73.5 °F /  23.1 °C 65.1 °F /  18.4 °C 29.95in /  1014.1hPa South 2.0mph /  3.2km/h 3.0mph /  4.8km/h 75% 0.00in /  0mm
23:27 73.6 °F /  23.1 °C 65.2 °F /  18.4 °C 29.95in /  1014.1hPa SE 1.0mph /  1.6km/h 3.0mph /  4.8km/h 75% 0.00in /  0mm
23:32 73.3 °F /  22.9 °C 64.9 °F /  18.3 °C 29.96in /  1014.4hPa SSE 1.0mph /  1.6km/h 2.0mph /  3.2km/h 75% 0.00in /  0mm
23:37 72.7 °F /  22.6 °C 65.1 °F /  18.4 °C 29.96in /  1014.4hPa SE 1.0mph /  1.6km/h 2.0mph /  3.2km/h 77% 0.00in /  0mm
23:43 72.4 °F /  22.4 °C 65.2 °F /  18.4 °C 29.96in /  1014.4hPa SE 2.0mph /  3.2km/h 2.0mph /  3.2km/h 78% 0.00in /  0mm
23:48 72.5 °F /  22.5 °C 65.3 °F /  18.5 °C 29.95in /  1014.1hPa South 1.0mph /  1.6km/h 3.0mph /  4.8km/h 78% 0.00in /  0mm
23:53 72.7 °F /  22.6 °C 65.4 °F /  18.6 °C 29.96in /  1014.4hPa SSE 2.0mph /  3.2km/h 2.0mph /  3.2km/h 78% 0.00in /  0mm
23:58 72.7 °F /  22.6 °C 65.1 °F /  18.4 °C 29.96in /  1014.4hPa South 2.0mph /  3.2km/h 2.0mph /  3.2km/h 77% 0.00in /  0mm
Compliments of Weather Underground